Rechercher aéroport 
image banner adimage banner adimage banner ad
image banner ad

CEN7 - Deline

Situé à , Canada

ICAO - CEN7, IATA -

Données fournies par Airmate  

Information générale

Coordonnées: N65°11'0" W123°25'0"
Élévation : 512 feet MSL.
Variation magnétique : 22.5208° East
Voir autres Aéroports à Northwest Territories

Données opérationnelles

Special qualification required
Heure actuelle UTC:
Heure actuelle locale:
Météo à : CYWJ - Deline ( 3 km )
METAR: CYWJ 070000Z 09009KT 40SM FEW180 BKN230 M22/M25 A2969 RMK AC3CI3 LAST STFD OBS/NXT 071400 UTC SLP085
TAF: TAF CYWJ 061740Z 0618/0624 VRB03KT P6SM FEW230 BECMG 0620/0622 12007KT FM062200 12007KT P6SM BKN180 RMK NXT FCST BY 071500Z
Voir NOTAMs / SUP AIP / TFR affectant cet aéroport [VIEW]
Fréquences de communication: [VIEW]

Pistes:

Identifiant RWYQFULongueur (ft)Largeur (ft)SurfaceLDA (ft)
W00WATER

Coordonnées de l'aéroport

Adresse: Canada

Vue satellite de CEN7